sensor_id;sensor_type;location;lat;lon;timestamp;temperature;humidity
22950;DHT22;11641;51.018;4.474;2023-01-15T00:01:44;9.20;99.90
22950;DHT22;11641;51.018;4.474;2023-01-15T00:04:11;9.20;99.90
22950;DHT22;11641;51.018;4.474;2023-01-15T00:06:41;9.30;99.90
22950;DHT22;11641;51.018;4.474;2023-01-15T00:09:10;9.30;99.90
22950;DHT22;11641;51.018;4.474;2023-01-15T00:11:37;9.30;99.90
22950;DHT22;11641;51.018;4.474;2023-01-15T00:14:03;9.40;99.90
22950;DHT22;11641;51.018;4.474;2023-01-15T00:16:28;9.40;99.90
22950;DHT22;11641;51.018;4.474;2023-01-15T00:18:59;9.30;99.90
22950;DHT22;11641;51.018;4.474;2023-01-15T00:21:29;9.30;99.90
22950;DHT22;11641;51.018;4.474;2023-01-15T00:23:55;9.40;99.90
22950;DHT22;11641;51.018;4.474;2023-01-15T00:26:39;9.30;99.90
22950;DHT22;11641;51.018;4.474;2023-01-15T00:29:24;9.40;99.90
22950;DHT22;11641;51.018;4.474;2023-01-15T00:32:03;9.40;99.90
22950;DHT22;11641;51.018;4.474;2023-01-15T00:34:29;9.40;99.90
22950;DHT22;11641;51.018;4.474;2023-01-15T00:36:57;9.40;99.90
22950;DHT22;11641;51.018;4.474;2023-01-15T00:39:23;9.40;99.90
22950;DHT22;11641;51.018;4.474;2023-01-15T00:41:49;9.40;99.90
22950;DHT22;11641;51.018;4.474;2023-01-15T00:44:15;9.50;99.90
22950;DHT22;11641;51.018;4.474;2023-01-15T00:46:44;9.40;99.90
22950;DHT22;11641;51.018;4.474;2023-01-15T00:49:10;9.40;99.90
22950;DHT22;11641;51.018;4.474;2023-01-15T00:51:35;9.30;99.90
22950;DHT22;11641;51.018;4.474;2023-01-15T00:54:01;9.30;99.90
22950;DHT22;11641;51.018;4.474;2023-01-15T00:56:27;9.20;99.90
22950;DHT22;11641;51.018;4.474;2023-01-15T00:58:53;9.30;99.90
22950;DHT22;11641;51.018;4.474;2023-01-15T01:01:19;9.20;99.90
22950;DHT22;11641;51.018;4.474;2023-01-15T01:03:45;9.30;99.90
22950;DHT22;11641;51.018;4.474;2023-01-15T01:06:16;9.40;99.90
22950;DHT22;11641;51.018;4.474;2023-01-15T01:08:42;9.40;99.90
22950;DHT22;11641;51.018;4.474;2023-01-15T01:11:18;9.20;99.90
22950;DHT22;11641;51.018;4.474;2023-01-15T01:13:44;9.30;99.90
22950;DHT22;11641;51.018;4.474;2023-01-15T01:16:36;9.20;99.90
22950;DHT22;11641;51.018;4.474;2023-01-15T01:19:04;9.30;99.90
22950;DHT22;11641;51.018;4.474;2023-01-15T01:21:30;9.20;99.90
22950;DHT22;11641;51.018;4.474;2023-01-15T01:24:00;9.30;99.90
22950;DHT22;11641;51.018;4.474;2023-01-15T01:26:27;9.30;99.90
22950;DHT22;11641;51.018;4.474;2023-01-15T01:28:53;9.30;99.90
22950;DHT22;11641;51.018;4.474;2023-01-15T01:31:20;9.30;99.90
22950;DHT22;11641;51.018;4.474;2023-01-15T01:33:53;9.20;99.90
22950;DHT22;11641;51.018;4.474;2023-01-15T01:36:24;9.30;99.90
22950;DHT22;11641;51.018;4.474;2023-01-15T01:38:52;9.30;99.90
22950;DHT22;11641;51.018;4.474;2023-01-15T01:41:18;9.20;99.90
22950;DHT22;11641;51.018;4.474;2023-01-15T01:43:57;9.20;99.90
22950;DHT22;11641;51.018;4.474;2023-01-15T01:46:25;9.20;99.90
22950;DHT22;11641;51.018;4.474;2023-01-15T01:49:05;9.20;99.90
22950;DHT22;11641;51.018;4.474;2023-01-15T01:51:47;9.00;99.90
22950;DHT22;11641;51.018;4.474;2023-01-15T01:54:18;9.00;99.90
22950;DHT22;11641;51.018;4.474;2023-01-15T01:56:47;8.90;99.90
22950;DHT22;11641;51.018;4.474;2023-01-15T01:59:15;9.00;99.90
22950;DHT22;11641;51.018;4.474;2023-01-15T02:01:41;9.10;99.90
22950;DHT22;11641;51.018;4.474;2023-01-15T02:04:08;9.10;99.90
22950;DHT22;11641;51.018;4.474;2023-01-15T02:06:38;9.00;99.90
22950;DHT22;11641;51.018;4.474;2023-01-15T02:09:05;8.90;99.90
22950;DHT22;11641;51.018;4.474;2023-01-15T02:11:32;9.00;99.90
22950;DHT22;11641;51.018;4.474;2023-01-15T02:22:03;8.70;99.90
22950;DHT22;11641;51.018;4.474;2023-01-15T02:27:29;8.70;99.90
22950;DHT22;11641;51.018;4.474;2023-01-15T02:30:07;8.70;99.90
22950;DHT22;11641;51.018;4.474;2023-01-15T02:32:52;8.70;99.90
22950;DHT22;11641;51.018;4.474;2023-01-15T02:37:59;8.70;99.90
22950;DHT22;11641;51.018;4.474;2023-01-15T02:40:26;8.60;99.90
22950;DHT22;11641;51.018;4.474;2023-01-15T02:42:53;8.60;99.90
22950;DHT22;11641;51.018;4.474;2023-01-15T02:45:30;8.70;99.90
22950;DHT22;11641;51.018;4.474;2023-01-15T02:47:59;8.70;99.90
22950;DHT22;11641;51.018;4.474;2023-01-15T02:50:31;8.50;99.90
22950;DHT22;11641;51.018;4.474;2023-01-15T02:53:02;8.50;99.90
22950;DHT22;11641;51.018;4.474;2023-01-15T02:55:36;8.50;99.90
22950;DHT22;11641;51.018;4.474;2023-01-15T02:58:08;8.50;99.90
22950;DHT22;11641;51.018;4.474;2023-01-15T03:00:41;8.50;99.90
22950;DHT22;11641;51.018;4.474;2023-01-15T03:03:25;8.40;99.90
22950;DHT22;11641;51.018;4.474;2023-01-15T03:06:12;8.40;99.90
22950;DHT22;11641;51.018;4.474;2023-01-15T03:08:39;8.40;99.90
22950;DHT22;11641;51.018;4.474;2023-01-15T03:11:16;8.40;99.90
22950;DHT22;11641;51.018;4.474;2023-01-15T03:13:47;8.40;99.90
22950;DHT22;11641;51.018;4.474;2023-01-15T03:21:48;8.50;99.90
22950;DHT22;11641;51.018;4.474;2023-01-15T03:24:20;8.40;99.90
22950;DHT22;11641;51.018;4.474;2023-01-15T03:26:49;8.40;99.90
22950;DHT22;11641;51.018;4.474;2023-01-15T03:29:18;8.40;99.90
22950;DHT22;11641;51.018;4.474;2023-01-15T03:31:44;8.30;99.90
22950;DHT22;11641;51.018;4.474;2023-01-15T03:34:10;8.20;99.90
22950;DHT22;11641;51.018;4.474;2023-01-15T03:36:36;8.20;99.90
22950;DHT22;11641;51.018;4.474;2023-01-15T03:39:02;8.10;99.90
22950;DHT22;11641;51.018;4.474;2023-01-15T03:41:40;8.10;99.90
22950;DHT22;11641;51.018;4.474;2023-01-15T03:44:34;8.20;99.90
22950;DHT22;11641;51.018;4.474;2023-01-15T03:47:26;8.20;99.90
22950;DHT22;11641;51.018;4.474;2023-01-15T03:58:59;8.20;99.90
22950;DHT22;11641;51.018;4.474;2023-01-15T04:01:32;8.20;99.90
22950;DHT22;11641;51.018;4.474;2023-01-15T04:04:00;8.20;99.90
22950;DHT22;11641;51.018;4.474;2023-01-15T04:06:28;8.20;99.90
22950;DHT22;11641;51.018;4.474;2023-01-15T04:08:57;8.20;99.90
22950;DHT22;11641;51.018;4.474;2023-01-15T04:11:25;8.10;99.90
22950;DHT22;11641;51.018;4.474;2023-01-15T04:13:51;8.00;99.90
22950;DHT22;11641;51.018;4.474;2023-01-15T04:16:27;7.90;99.90
22950;DHT22;11641;51.018;4.474;2023-01-15T04:18:53;7.90;99.90
22950;DHT22;11641;51.018;4.474;2023-01-15T04:21:19;8.00;99.90
22950;DHT22;11641;51.018;4.474;2023-01-15T04:23:45;7.90;99.90
22950;DHT22;11641;51.018;4.474;2023-01-15T04:26:13;7.80;99.90
22950;DHT22;11641;51.018;4.474;2023-01-15T04:28:41;7.80;99.90
22950;DHT22;11641;51.018;4.474;2023-01-15T04:31:07;7.70;99.90
22950;DHT22;11641;51.018;4.474;2023-01-15T04:33:33;7.90;99.90
22950;DHT22;11641;51.018;4.474;2023-01-15T04:36:00;7.90;99.90
22950;DHT22;11641;51.018;4.474;2023-01-15T04:38:26;7.90;99.90
22950;DHT22;11641;51.018;4.474;2023-01-15T04:40:52;7.90;99.90
22950;DHT22;11641;51.018;4.474;2023-01-15T04:43:36;7.80;99.90
22950;DHT22;11641;51.018;4.474;2023-01-15T04:46:21;7.60;99.90
22950;DHT22;11641;51.018;4.474;2023-01-15T04:48:49;7.70;99.90
22950;DHT22;11641;51.018;4.474;2023-01-15T04:51:15;7.70;99.90
22950;DHT22;11641;51.018;4.474;2023-01-15T04:53:41;7.70;99.90
22950;DHT22;11641;51.018;4.474;2023-01-15T04:56:07;7.70;99.90
22950;DHT22;11641;51.018;4.474;2023-01-15T04:58:34;7.90;99.90
22950;DHT22;11641;51.018;4.474;2023-01-15T05:01:00;7.90;99.90
22950;DHT22;11641;51.018;4.474;2023-01-15T05:03:30;8.00;99.90
22950;DHT22;11641;51.018;4.474;2023-01-15T05:06:00;7.90;99.90
22950;DHT22;11641;51.018;4.474;2023-01-15T05:08:29;7.80;99.90
22950;DHT22;11641;51.018;4.474;2023-01-15T05:10:55;7.80;99.90
22950;DHT22;11641;51.018;4.474;2023-01-15T05:13:25;7.90;99.90
22950;DHT22;11641;51.018;4.474;2023-01-15T05:15:51;7.80;99.90
22950;DHT22;11641;51.018;4.474;2023-01-15T05:18:17;7.90;99.90
22950;DHT22;11641;51.018;4.474;2023-01-15T05:20:42;7.90;99.90
22950;DHT22;11641;51.018;4.474;2023-01-15T05:23:08;7.80;99.90
22950;DHT22;11641;51.018;4.474;2023-01-15T05:25:37;7.80;99.90
22950;DHT22;11641;51.018;4.474;2023-01-15T05:28:05;7.80;99.90
22950;DHT22;11641;51.018;4.474;2023-01-15T05:30:33;7.80;99.90
22950;DHT22;11641;51.018;4.474;2023-01-15T05:32:59;7.70;99.90
22950;DHT22;11641;51.018;4.474;2023-01-15T05:35:25;7.70;99.90
22950;DHT22;11641;51.018;4.474;2023-01-15T05:37:51;7.70;99.90
22950;DHT22;11641;51.018;4.474;2023-01-15T05:40:16;7.70;99.90
22950;DHT22;11641;51.018;4.474;2023-01-15T05:42:45;7.70;99.90
22950;DHT22;11641;51.018;4.474;2023-01-15T05:45:10;7.60;99.90
22950;DHT22;11641;51.018;4.474;2023-01-15T05:47:38;7.50;99.90
22950;DHT22;11641;51.018;4.474;2023-01-15T05:50:04;7.50;99.90
22950;DHT22;11641;51.018;4.474;2023-01-15T05:52:30;7.60;99.90
22950;DHT22;11641;51.018;4.474;2023-01-15T05:54:55;7.60;99.90
22950;DHT22;11641;51.018;4.474;2023-01-15T05:57:21;7.60;99.90
22950;DHT22;11641;51.018;4.474;2023-01-15T05:59:47;7.60;99.90
22950;DHT22;11641;51.018;4.474;2023-01-15T06:02:14;7.60;99.90
22950;DHT22;11641;51.018;4.474;2023-01-15T06:04:40;7.60;99.90
22950;DHT22;11641;51.018;4.474;2023-01-15T06:07:06;7.70;99.90
22950;DHT22;11641;51.018;4.474;2023-01-15T06:09:31;7.60;99.90
22950;DHT22;11641;51.018;4.474;2023-01-15T06:11:57;7.70;99.90
22950;DHT22;11641;51.018;4.474;2023-01-15T06:14:25;7.70;99.90
22950;DHT22;11641;51.018;4.474;2023-01-15T06:16:51;7.80;99.90
22950;DHT22;11641;51.018;4.474;2023-01-15T06:19:16;7.60;99.90
22950;DHT22;11641;51.018;4.474;2023-01-15T06:21:42;7.40;99.90
22950;DHT22;11641;51.018;4.474;2023-01-15T06:24:10;7.10;99.90
22950;DHT22;11641;51.018;4.474;2023-01-15T06:26:37;7.20;99.90
22950;DHT22;11641;51.018;4.474;2023-01-15T06:29:03;7.00;99.90
22950;DHT22;11641;51.018;4.474;2023-01-15T06:31:29;7.00;99.90
22950;DHT22;11641;51.018;4.474;2023-01-15T06:33:56;6.90;99.90
22950;DHT22;11641;51.018;4.474;2023-01-15T06:36:26;6.90;99.90
22950;DHT22;11641;51.018;4.474;2023-01-15T06:38:52;6.70;99.90
22950;DHT22;11641;51.018;4.474;2023-01-15T06:41:21;6.60;99.90
22950;DHT22;11641;51.018;4.474;2023-01-15T06:44:08;6.60;99.90
22950;DHT22;11641;51.018;4.474;2023-01-15T06:46:53;6.60;99.90
22950;DHT22;11641;51.018;4.474;2023-01-15T06:49:37;6.70;99.90
22950;DHT22;11641;51.018;4.474;2023-01-15T06:52:10;6.70;99.90
22950;DHT22;11641;51.018;4.474;2023-01-15T06:54:36;6.70;99.90
22950;DHT22;11641;51.018;4.474;2023-01-15T06:57:04;6.60;99.90
22950;DHT22;11641;51.018;4.474;2023-01-15T06:59:30;6.50;99.90
22950;DHT22;11641;51.018;4.474;2023-01-15T07:01:55;6.50;99.90
22950;DHT22;11641;51.018;4.474;2023-01-15T07:04:21;6.50;99.90
22950;DHT22;11641;51.018;4.474;2023-01-15T07:06:47;6.50;99.90
22950;DHT22;11641;51.018;4.474;2023-01-15T07:09:13;6.40;99.90
22950;DHT22;11641;51.018;4.474;2023-01-15T07:11:39;6.30;99.90
22950;DHT22;11641;51.018;4.474;2023-01-15T07:14:19;6.30;99.90
22950;DHT22;11641;51.018;4.474;2023-01-15T07:16:45;6.30;99.90
22950;DHT22;11641;51.018;4.474;2023-01-15T07:19:11;6.20;99.90
22950;DHT22;11641;51.018;4.474;2023-01-15T07:21:40;6.20;99.90
22950;DHT22;11641;51.018;4.474;2023-01-15T07:24:06;6.30;99.90
22950;DHT22;11641;51.018;4.474;2023-01-15T07:26:33;6.30;99.90
22950;DHT22;11641;51.018;4.474;2023-01-15T07:28:58;6.20;99.90
22950;DHT22;11641;51.018;4.474;2023-01-15T07:31:24;6.20;99.90
22950;DHT22;11641;51.018;4.474;2023-01-15T07:33:50;6.20;99.90
22950;DHT22;11641;51.018;4.474;2023-01-15T07:36:16;6.20;99.90
22950;DHT22;11641;51.018;4.474;2023-01-15T07:38:41;6.20;99.90
22950;DHT22;11641;51.018;4.474;2023-01-15T07:41:07;6.20;99.90
22950;DHT22;11641;51.018;4.474;2023-01-15T07:43:51;6.20;99.90
22950;DHT22;11641;51.018;4.474;2023-01-15T07:46:35;6.30;99.90
22950;DHT22;11641;51.018;4.474;2023-01-15T07:49:19;6.20;99.90
22950;DHT22;11641;51.018;4.474;2023-01-15T07:52:04;6.20;99.90
22950;DHT22;11641;51.018;4.474;2023-01-15T07:54:29;6.20;99.90
22950;DHT22;11641;51.018;4.474;2023-01-15T07:56:55;6.20;99.90
22950;DHT22;11641;51.018;4.474;2023-01-15T07:59:21;6.20;99.90
22950;DHT22;11641;51.018;4.474;2023-01-15T08:01:47;6.30;99.90
22950;DHT22;11641;51.018;4.474;2023-01-15T08:04:15;6.30;99.90
22950;DHT22;11641;51.018;4.474;2023-01-15T08:06:41;6.30;99.90
22950;DHT22;11641;51.018;4.474;2023-01-15T08:09:06;6.30;99.90
22950;DHT22;11641;51.018;4.474;2023-01-15T08:11:32;6.30;99.90
22950;DHT22;11641;51.018;4.474;2023-01-15T08:14:17;6.30;99.90
22950;DHT22;11641;51.018;4.474;2023-01-15T08:17:03;6.40;99.90
22950;DHT22;11641;51.018;4.474;2023-01-15T08:19:29;6.40;99.90
22950;DHT22;11641;51.018;4.474;2023-01-15T08:21:55;6.30;99.90
22950;DHT22;11641;51.018;4.474;2023-01-15T08:24:27;6.40;99.90
22950;DHT22;11641;51.018;4.474;2023-01-15T08:26:53;6.50;99.90
22950;DHT22;11641;51.018;4.474;2023-01-15T08:29:19;6.50;99.90
22950;DHT22;11641;51.018;4.474;2023-01-15T08:31:45;6.50;99.90
22950;DHT22;11641;51.018;4.474;2023-01-15T08:34:11;6.50;99.90
22950;DHT22;11641;51.018;4.474;2023-01-15T08:36:39;6.50;99.90
22950;DHT22;11641;51.018;4.474;2023-01-15T08:39:05;6.50;99.90
22950;DHT22;11641;51.018;4.474;2023-01-15T08:41:31;6.50;99.90
22950;DHT22;11641;51.018;4.474;2023-01-15T08:43:56;6.60;99.90
22950;DHT22;11641;51.018;4.474;2023-01-15T08:46:22;6.80;99.90
22950;DHT22;11641;51.018;4.474;2023-01-15T08:48:50;6.80;99.90
22950;DHT22;11641;51.018;4.474;2023-01-15T08:51:17;6.80;99.90
22950;DHT22;11641;51.018;4.474;2023-01-15T08:53:44;6.80;99.90
22950;DHT22;11641;51.018;4.474;2023-01-15T08:56:14;6.90;99.90
22950;DHT22;11641;51.018;4.474;2023-01-15T08:58:40;6.90;99.90
22950;DHT22;11641;51.018;4.474;2023-01-15T09:01:08;7.00;99.90
22950;DHT22;11641;51.018;4.474;2023-01-15T09:03:34;6.90;99.90
22950;DHT22;11641;51.018;4.474;2023-01-15T09:06:03;6.90;99.90
22950;DHT22;11641;51.018;4.474;2023-01-15T09:08:30;7.00;99.90
22950;DHT22;11641;51.018;4.474;2023-01-15T09:11:00;7.10;99.90
22950;DHT22;11641;51.018;4.474;2023-01-15T09:13:29;7.20;99.90
22950;DHT22;11641;51.018;4.474;2023-01-15T09:15:59;7.20;99.90
22950;DHT22;11641;51.018;4.474;2023-01-15T09:18:27;7.40;99.90
22950;DHT22;11641;51.018;4.474;2023-01-15T09:20:53;7.50;99.90
22950;DHT22;11641;51.018;4.474;2023-01-15T09:23:19;7.50;99.90
22950;DHT22;11641;51.018;4.474;2023-01-15T09:26:02;7.70;99.90
22950;DHT22;11641;51.018;4.474;2023-01-15T09:28:31;8.00;99.90
22950;DHT22;11641;51.018;4.474;2023-01-15T09:30:59;8.80;99.90
22950;DHT22;11641;51.018;4.474;2023-01-15T09:33:25;9.20;99.90
22950;DHT22;11641;51.018;4.474;2023-01-15T09:35:51;9.60;99.90
22950;DHT22;11641;51.018;4.474;2023-01-15T09:38:20;10.00;99.90
22950;DHT22;11641;51.018;4.474;2023-01-15T09:40:58;10.10;99.90
22950;DHT22;11641;51.018;4.474;2023-01-15T09:49:01;10.90;99.90
22950;DHT22;11641;51.018;4.474;2023-01-15T09:56:32;10.50;99.90
22950;DHT22;11641;51.018;4.474;2023-01-15T09:59:02;10.60;99.90
22950;DHT22;11641;51.018;4.474;2023-01-15T10:01:30;11.50;99.90
22950;DHT22;11641;51.018;4.474;2023-01-15T10:07:12;9.70;99.90
22950;DHT22;11641;51.018;4.474;2023-01-15T10:09:42;8.90;99.90
22950;DHT22;11641;51.018;4.474;2023-01-15T10:12:20;8.70;99.90
22950;DHT22;11641;51.018;4.474;2023-01-15T10:17:48;9.00;99.90
22950;DHT22;11641;51.018;4.474;2023-01-15T10:23:20;9.00;99.90
22950;DHT22;11641;51.018;4.474;2023-01-15T10:25:53;9.20;99.90
22950;DHT22;11641;51.018;4.474;2023-01-15T10:28:26;8.70;99.90
22950;DHT22;11641;51.018;4.474;2023-01-15T10:30:59;8.50;99.90
22950;DHT22;11641;51.018;4.474;2023-01-15T10:36:03;7.90;99.90
22950;DHT22;11641;51.018;4.474;2023-01-15T10:47:06;11.70;99.90
22950;DHT22;11641;51.018;4.474;2023-01-15T10:49:35;11.50;99.90
22950;DHT22;11641;51.018;4.474;2023-01-15T10:52:22;12.10;99.90
22950;DHT22;11641;51.018;4.474;2023-01-15T10:55:37;12.00;99.90
22950;DHT22;11641;51.018;4.474;2023-01-15T11:00:15;13.80;99.90
22950;DHT22;11641;51.018;4.474;2023-01-15T11:02:48;13.00;99.90
22950;DHT22;11641;51.018;4.474;2023-01-15T11:05:17;12.40;99.90
22950;DHT22;11641;51.018;4.474;2023-01-15T11:07:47;11.50;99.90
22950;DHT22;11641;51.018;4.474;2023-01-15T11:10:17;11.50;99.90
22950;DHT22;11641;51.018;4.474;2023-01-15T11:12:59;11.60;99.90
22950;DHT22;11641;51.018;4.474;2023-01-15T11:15:48;12.00;99.90
22950;DHT22;11641;51.018;4.474;2023-01-15T11:18:39;13.20;99.90
22950;DHT22;11641;51.018;4.474;2023-01-15T11:21:24;13.50;99.90
22950;DHT22;11641;51.018;4.474;2023-01-15T11:23:51;13.60;99.90
22950;DHT22;11641;51.018;4.474;2023-01-15T11:28:48;13.10;99.90
22950;DHT22;11641;51.018;4.474;2023-01-15T11:31:15;12.50;99.90
22950;DHT22;11641;51.018;4.474;2023-01-15T11:34:01;11.60;99.90
22950;DHT22;11641;51.018;4.474;2023-01-15T11:36:28;10.60;99.90
22950;DHT22;11641;51.018;4.474;2023-01-15T11:38:55;10.00;99.90
22950;DHT22;11641;51.018;4.474;2023-01-15T11:41:30;9.90;99.90
22950;DHT22;11641;51.018;4.474;2023-01-15T11:44:19;9.50;99.90
22950;DHT22;11641;51.018;4.474;2023-01-15T11:47:10;9.30;99.90
22950;DHT22;11641;51.018;4.474;2023-01-15T11:49:55;9.50;99.90
22950;DHT22;11641;51.018;4.474;2023-01-15T11:52:49;9.50;99.90
22950;DHT22;11641;51.018;4.474;2023-01-15T11:55:19;9.40;99.90
22950;DHT22;11641;51.018;4.474;2023-01-15T11:57:46;9.90;99.90
22950;DHT22;11641;51.018;4.474;2023-01-15T12:00:37;9.80;99.90
22950;DHT22;11641;51.018;4.474;2023-01-15T12:03:18;9.30;99.90
22950;DHT22;11641;51.018;4.474;2023-01-15T12:06:00;9.20;99.90
22950;DHT22;11641;51.018;4.474;2023-01-15T12:08:45;8.90;99.90
22950;DHT22;11641;51.018;4.474;2023-01-15T12:14:59;9.00;99.90
22950;DHT22;11641;51.018;4.474;2023-01-15T12:26:19;8.60;99.90
22950;DHT22;11641;51.018;4.474;2023-01-15T12:28:52;8.80;99.90
22950;DHT22;11641;51.018;4.474;2023-01-15T12:31:24;9.40;99.90
22950;DHT22;11641;51.018;4.474;2023-01-15T12:34:05;9.90;99.90
22950;DHT22;11641;51.018;4.474;2023-01-15T12:36:54;9.80;99.90
22950;DHT22;11641;51.018;4.474;2023-01-15T12:39:35;9.50;99.90
22950;DHT22;11641;51.018;4.474;2023-01-15T12:42:07;9.10;99.90
22950;DHT22;11641;51.018;4.474;2023-01-15T12:44:58;9.20;99.90
22950;DHT22;11641;51.018;4.474;2023-01-15T12:47:42;9.10;99.90
22950;DHT22;11641;51.018;4.474;2023-01-15T12:52:46;8.80;99.90
22950;DHT22;11641;51.018;4.474;2023-01-15T12:55:18;8.90;99.90
22950;DHT22;11641;51.018;4.474;2023-01-15T12:57:48;8.90;99.90
22950;DHT22;11641;51.018;4.474;2023-01-15T13:00:26;8.80;99.90
22950;DHT22;11641;51.018;4.474;2023-01-15T13:05:44;8.90;99.90
22950;DHT22;11641;51.018;4.474;2023-01-15T13:10:56;9.00;99.90
22950;DHT22;11641;51.018;4.474;2023-01-15T13:13:24;8.90;99.90
22950;DHT22;11641;51.018;4.474;2023-01-15T13:21:35;10.00;99.90
22950;DHT22;11641;51.018;4.474;2023-01-15T13:30:39;9.40;99.90
22950;DHT22;11641;51.018;4.474;2023-01-15T13:33:15;9.20;99.90
22950;DHT22;11641;51.018;4.474;2023-01-15T13:35:53;9.10;99.90
22950;DHT22;11641;51.018;4.474;2023-01-15T13:38:22;9.20;99.90
22950;DHT22;11641;51.018;4.474;2023-01-15T13:40:52;9.10;99.90
22950;DHT22;11641;51.018;4.474;2023-01-15T13:43:34;9.10;99.90
22950;DHT22;11641;51.018;4.474;2023-01-15T13:46:03;8.90;99.90
22950;DHT22;11641;51.018;4.474;2023-01-15T13:48:39;8.90;99.90
22950;DHT22;11641;51.018;4.474;2023-01-15T13:51:16;8.70;99.90
22950;DHT22;11641;51.018;4.474;2023-01-15T13:53:47;8.60;99.90
22950;DHT22;11641;51.018;4.474;2023-01-15T13:56:26;8.30;99.90
22950;DHT22;11641;51.018;4.474;2023-01-15T13:58:55;8.20;99.90
22950;DHT22;11641;51.018;4.474;2023-01-15T14:01:36;8.20;99.90
22950;DHT22;11641;51.018;4.474;2023-01-15T14:09:28;8.30;99.90
22950;DHT22;11641;51.018;4.474;2023-01-15T14:12:00;8.00;99.90
22950;DHT22;11641;51.018;4.474;2023-01-15T14:25:24;8.20;99.90
22950;DHT22;11641;51.018;4.474;2023-01-15T14:28:05;8.10;99.90
22950;DHT22;11641;51.018;4.474;2023-01-15T14:34:07;8.70;99.90
22950;DHT22;11641;51.018;4.474;2023-01-15T14:36:48;8.60;99.90
22950;DHT22;11641;51.018;4.474;2023-01-15T14:40:15;8.50;99.90
22950;DHT22;11641;51.018;4.474;2023-01-15T14:42:33;8.20;99.90
22950;DHT22;11641;51.018;4.474;2023-01-15T14:45:25;8.00;99.90
22950;DHT22;11641;51.018;4.474;2023-01-15T14:48:03;7.90;99.90
22950;DHT22;11641;51.018;4.474;2023-01-15T14:50:34;8.00;99.90
22950;DHT22;11641;51.018;4.474;2023-01-15T14:55:54;7.90;99.90
22950;DHT22;11641;51.018;4.474;2023-01-15T15:06:50;7.90;99.90
22950;DHT22;11641;51.018;4.474;2023-01-15T15:09:35;7.90;99.90
22950;DHT22;11641;51.018;4.474;2023-01-15T15:17:55;7.90;99.90
22950;DHT22;11641;51.018;4.474;2023-01-15T15:26:04;7.70;99.90
22950;DHT22;11641;51.018;4.474;2023-01-15T15:28:30;7.70;99.90
22950;DHT22;11641;51.018;4.474;2023-01-15T15:30:57;7.60;99.90
22950;DHT22;11641;51.018;4.474;2023-01-15T15:33:39;7.70;99.90
22950;DHT22;11641;51.018;4.474;2023-01-15T15:36:08;7.60;99.90
22950;DHT22;11641;51.018;4.474;2023-01-15T15:38:36;7.70;99.90
22950;DHT22;11641;51.018;4.474;2023-01-15T15:41:10;7.70;99.90
22950;DHT22;11641;51.018;4.474;2023-01-15T15:43:54;7.60;99.90
22950;DHT22;11641;51.018;4.474;2023-01-15T15:46:48;7.60;99.90
22950;DHT22;11641;51.018;4.474;2023-01-15T15:49:40;7.50;99.90
22950;DHT22;11641;51.018;4.474;2023-01-15T15:52:20;7.40;99.90
22950;DHT22;11641;51.018;4.474;2023-01-15T15:54:57;7.40;99.90
22950;DHT22;11641;51.018;4.474;2023-01-15T15:57:23;7.30;99.90
22950;DHT22;11641;51.018;4.474;2023-01-15T15:59:51;7.20;99.90
22950;DHT22;11641;51.018;4.474;2023-01-15T16:02:23;7.10;99.90
22950;DHT22;11641;51.018;4.474;2023-01-15T16:04:59;7.10;99.90
22950;DHT22;11641;51.018;4.474;2023-01-15T16:07:30;7.20;99.90
22950;DHT22;11641;51.018;4.474;2023-01-15T16:10:25;7.30;99.90
22950;DHT22;11641;51.018;4.474;2023-01-15T16:12:57;7.20;99.90
22950;DHT22;11641;51.018;4.474;2023-01-15T16:15:26;7.10;99.90
22950;DHT22;11641;51.018;4.474;2023-01-15T16:17:54;7.00;99.90
22950;DHT22;11641;51.018;4.474;2023-01-15T16:20:21;6.90;99.90
22950;DHT22;11641;51.018;4.474;2023-01-15T16:22:56;6.80;99.90
22950;DHT22;11641;51.018;4.474;2023-01-15T16:25:24;6.80;99.90
22950;DHT22;11641;51.018;4.474;2023-01-15T16:27:52;6.70;99.90
22950;DHT22;11641;51.018;4.474;2023-01-15T16:30:20;6.60;99.90
22950;DHT22;11641;51.018;4.474;2023-01-15T16:32:47;6.60;99.90
22950;DHT22;11641;51.018;4.474;2023-01-15T16:35:21;6.60;99.90
22950;DHT22;11641;51.018;4.474;2023-01-15T16:37:52;6.60;99.90
22950;DHT22;11641;51.018;4.474;2023-01-15T16:40:36;6.70;99.90
22950;DHT22;11641;51.018;4.474;2023-01-15T16:43:06;6.50;99.90
22950;DHT22;11641;51.018;4.474;2023-01-15T16:45:32;6.50;99.90
22950;DHT22;11641;51.018;4.474;2023-01-15T16:50:56;6.40;99.90
22950;DHT22;11641;51.018;4.474;2023-01-15T16:53:38;6.20;99.90
22950;DHT22;11641;51.018;4.474;2023-01-15T16:59:52;6.10;99.90
22950;DHT22;11641;51.018;4.474;2023-01-15T17:02:14;6.20;99.90
22950;DHT22;11641;51.018;4.474;2023-01-15T17:04:45;6.20;99.90
22950;DHT22;11641;51.018;4.474;2023-01-15T17:07:30;6.30;99.90
22950;DHT22;11641;51.018;4.474;2023-01-15T17:09:59;6.30;99.90
22950;DHT22;11641;51.018;4.474;2023-01-15T17:12:29;6.30;99.90
22950;DHT22;11641;51.018;4.474;2023-01-15T17:17:49;6.40;99.90
22950;DHT22;11641;51.018;4.474;2023-01-15T17:20:19;6.30;99.90
22950;DHT22;11641;51.018;4.474;2023-01-15T17:22:46;6.40;99.90
22950;DHT22;11641;51.018;4.474;2023-01-15T17:27:47;6.30;99.90
22950;DHT22;11641;51.018;4.474;2023-01-15T17:30:13;6.40;99.90
22950;DHT22;11641;51.018;4.474;2023-01-15T17:32:40;6.50;99.90
22950;DHT22;11641;51.018;4.474;2023-01-15T17:35:22;6.50;99.90
22950;DHT22;11641;51.018;4.474;2023-01-15T17:37:48;6.50;99.90
22950;DHT22;11641;51.018;4.474;2023-01-15T17:40:14;6.50;99.90
22950;DHT22;11641;51.018;4.474;2023-01-15T17:42:40;6.50;99.90
22950;DHT22;11641;51.018;4.474;2023-01-15T17:45:08;6.40;99.90
22950;DHT22;11641;51.018;4.474;2023-01-15T17:47:37;6.40;99.90
22950;DHT22;11641;51.018;4.474;2023-01-15T17:50:04;6.60;99.90
22950;DHT22;11641;51.018;4.474;2023-01-15T17:52:30;6.50;99.90
22950;DHT22;11641;51.018;4.474;2023-01-15T17:54:55;6.40;99.90
22950;DHT22;11641;51.018;4.474;2023-01-15T17:57:42;6.40;99.90
22950;DHT22;11641;51.018;4.474;2023-01-15T18:00:26;6.40;99.90
22950;DHT22;11641;51.018;4.474;2023-01-15T18:03:19;6.40;99.90
22950;DHT22;11641;51.018;4.474;2023-01-15T18:06:05;6.40;99.90
22950;DHT22;11641;51.018;4.474;2023-01-15T18:08:32;6.50;99.90
22950;DHT22;11641;51.018;4.474;2023-01-15T18:11:00;6.40;99.90
22950;DHT22;11641;51.018;4.474;2023-01-15T18:13:26;6.50;99.90
22950;DHT22;11641;51.018;4.474;2023-01-15T18:15:52;6.40;99.90
22950;DHT22;11641;51.018;4.474;2023-01-15T18:18:17;6.50;99.90
22950;DHT22;11641;51.018;4.474;2023-01-15T18:20:45;6.40;99.90
22950;DHT22;11641;51.018;4.474;2023-01-15T18:23:11;6.50;99.90
22950;DHT22;11641;51.018;4.474;2023-01-15T18:25:37;6.50;99.90
22950;DHT22;11641;51.018;4.474;2023-01-15T18:28:13;6.50;99.90
22950;DHT22;11641;51.018;4.474;2023-01-15T18:30:39;6.50;99.90
22950;DHT22;11641;51.018;4.474;2023-01-15T18:33:05;6.50;99.90
22950;DHT22;11641;51.018;4.474;2023-01-15T18:35:30;6.60;99.90
22950;DHT22;11641;51.018;4.474;2023-01-15T18:37:56;6.50;99.90
22950;DHT22;11641;51.018;4.474;2023-01-15T18:40:22;6.50;99.90
22950;DHT22;11641;51.018;4.474;2023-01-15T18:42:55;6.70;99.90